Time;durP1;ratioP1;P1;durP2;ratioP2;P2;SDS_P1;SDS_P2;PMS_P1;PMS_P2;Temp;Humidity;BMP_temperature;BMP_pressure;BME280_temperature;BME280_humidity;BME280_pressure;Samples;Min_cycle;Max_cycle;Signal;HPM_P1;HPM_P2
2022/01/26 00:07:05;;;;;;;;;;;;;;;-9.62;62.40;96055.38;5073887;28;1983;-49
2022/01/26 00:09:31;;;;;;;;;;;;;;;-9.62;62.91;96054.47;5073706;28;1910;-49
2022/01/26 00:11:57;;;;;;;;;;;;;;;-9.72;62.36;96056.31;5072350;28;1093;-49
2022/01/26 00:14:23;;;;;;;;;;;;;;;-9.69;62.28;96047.69;5073942;28;1165;-49
2022/01/26 00:16:50;;;;;;;;;;;;;;;-9.63;62.67;96050.19;5073860;28;1013;-50
2022/01/26 00:19:23;;;;;;;;;;;;;;;-9.48;61.80;96049.16;5073708;28;1123;-49
2022/01/26 00:21:55;;;;;;;;;;;;;;;-9.30;62.10;96051.50;5073557;28;1041;-49
2022/01/26 00:38:50;;;;;;;;;;;;;;;-9.24;63.04;96042.78;5073380;28;1052;-49
2022/01/26 00:41:19;;;;;;;;;;;;;;;-9.26;63.02;96029.88;5072928;28;1128;-49
2022/01/26 00:43:51;;;;;;;;;;;;;;;-9.21;63.70;96042.75;5073518;28;981;-49
2022/01/26 00:46:17;;;;;;;;;;;;;;;-9.18;63.25;96040.13;5073032;28;1084;-49
2022/01/26 00:48:43;;;;;;;;;;;;;;;-9.11;63.34;96041.75;5073765;28;1036;-49
2022/01/26 00:51:11;;;;;;;;;;;;;;;-9.13;63.47;96037.47;5072090;28;1906;-49
2022/01/26 00:53:43;;;;;;;;;;;;;;;-9.17;63.68;96035.81;5073429;28;1005;-49
2022/01/26 00:56:09;;;;;;;;;;;;;;;-9.12;62.80;96041.78;5072853;28;1133;-49
2022/01/26 00:58:35;;;;;;;;;;;;;;;-9.09;62.92;96034.81;5073204;28;1010;-50
2022/01/26 01:01:03;;;;;;;;;;;;;;;-9.08;63.05;96038.28;5072956;28;1246;-49
2022/01/26 01:03:31;;;;;;;;;;;;;;;-9.05;62.39;96033.03;5073319;28;1036;-49
2022/01/26 01:06:02;;;;;;;;;;;;;;;-9.05;62.64;96033.91;5072818;28;1100;-49
2022/01/26 01:08:28;;;;;;;;;;;;;;;-9.05;62.85;96030.44;5073025;28;1128;-49
2022/01/26 01:10:55;;;;;;;;;;;;;;;-9.06;62.75;96027.00;5072730;28;1906;-49
2022/01/26 01:13:29;;;;;;;;;;;;;;;-9.09;63.10;96028.78;5072903;28;1105;-49
2022/01/26 01:15:56;;;;;;;;;;;;;;;-9.09;63.24;96028.78;5071962;28;1009;-49
2022/01/26 01:18:29;;;;;;;;;;;;;;;-9.08;63.33;96023.56;5072810;28;966;-49
2022/01/26 01:34:10;;;;;;;;;;;;;;;-9.28;63.84;96005.72;5073030;28;1056;-49
2022/01/26 01:36:39;;;;;;;;;;;;;;;-9.33;64.16;96007.53;5072807;28;1166;-49
2022/01/26 01:39:08;;;;;;;;;;;;;;;-9.27;64.41;96004.84;5073500;28;1067;-50
2022/01/26 01:41:35;;;;;;;;;;;;;;;-9.20;64.04;96003.00;5072605;28;1009;-48
2022/01/26 01:44:04;;;;;;;;;;;;;;;-9.23;63.41;96000.47;5072722;28;1112;-49
2022/01/26 01:46:30;;;;;;;;;;;;;;;-9.16;63.07;95998.63;5072711;28;1012;-49
2022/01/26 01:48:56;;;;;;;;;;;;;;;-9.34;63.86;96000.63;5072979;28;974;-49
2022/01/26 01:51:29;;;;;;;;;;;;;;;-9.34;63.87;95995.44;5072380;28;1980;-49
2022/01/26 01:53:55;;;;;;;;;;;;;;;-9.31;64.25;95997.16;5072787;28;985;-49
2022/01/26 01:56:24;;;;;;;;;;;;;;;-9.31;63.47;95997.16;5072634;28;978;-48
2022/01/26 01:58:52;;;;;;;;;;;;;;;-9.28;63.83;95995.34;5072685;28;1005;-49
2022/01/26 02:01:18;;;;;;;;;;;;;;;-9.15;63.62;95997.78;5072345;28;1137;-49
2022/01/26 02:03:44;;;;;;;;;;;;;;;-9.10;63.52;95995.97;5075589;28;1061;-49
2022/01/26 02:06:10;;;;;;;;;;;;;;;-9.05;63.24;95987.25;5076304;28;1059;-49
2022/01/26 02:08:36;;;;;;;;;;;;;;;-9.13;63.42;95989.09;5076160;28;982;-48
2022/01/26 02:11:06;;;;;;;;;;;;;;;-9.26;63.96;95985.84;5076236;28;1986;-49
2022/01/26 02:13:40;;;;;;;;;;;;;;;-9.25;63.67;95984.94;5075870;28;1069;-49
2022/01/26 02:16:18;;;;;;;;;;;;;;;-9.19;63.24;95988.34;5076000;28;1112;-49
2022/01/26 02:55:23;;;;;;;;;;;;;;;-8.73;64.75;95977.25;5075082;28;1052;-49
2022/01/26 03:01:04;;;;;;;;;;;;;;;-8.63;65.46;95968.47;5074949;28;1188;-50
2022/01/26 03:03:11;;;;;;;;;;;;;;;-8.61;65.65;95973.59;5067576;28;1429;-49
2022/01/26 03:05:45;;;;;;;;;;;;;;;-8.58;65.67;95968.38;5075078;28;1081;-49
2022/01/26 03:08:11;;;;;;;;;;;;;;;-8.49;66.03;95965.63;5074636;28;1101;-49
2022/01/26 03:10:52;;;;;;;;;;;;;;;-8.55;65.70;95958.81;5074965;28;1994;-49
2022/01/26 03:13:24;;;;;;;;;;;;;;;-8.54;66.29;95957.91;5074593;28;1112;-49
2022/01/26 03:15:58;;;;;;;;;;;;;;;-8.47;66.22;95959.50;5074751;28;976;-49
2022/01/26 03:20:55;;;;;;;;;;;;;;;-8.43;66.62;95955.13;5075058;28;984;-49
2022/01/26 03:34:15;;;;;;;;;;;;;;;-8.31;66.89;95949.69;5074278;28;1018;-49
2022/01/26 03:36:55;;;;;;;;;;;;;;;-8.22;66.52;95945.22;5074541;28;1213;-48
2022/01/26 03:39:23;;;;;;;;;;;;;;;-8.22;66.04;95943.47;5074217;28;977;-49
2022/01/26 03:41:55;;;;;;;;;;;;;;;-8.16;65.27;95940.75;5074306;28;1100;-49
2022/01/26 03:44:22;;;;;;;;;;;;;;;-8.18;66.25;95950.31;5074057;28;1026;-48
2022/01/26 03:46:49;;;;;;;;;;;;;;;-8.17;66.40;95953.78;5074474;28;982;-49
2022/01/26 03:49:15;;;;;;;;;;;;;;;-8.18;66.20;95944.28;5074130;28;977;-49
2022/01/26 03:51:42;;;;;;;;;;;;;;;-8.08;65.49;95943.19;5074337;28;1906;-49
2022/01/26 03:54:09;;;;;;;;;;;;;;;-8.01;65.51;95942.19;5074017;28;1001;-49
2022/01/26 03:56:35;;;;;;;;;;;;;;;-7.95;65.82;95946.41;5074117;28;1023;-49
2022/01/26 03:59:02;;;;;;;;;;;;;;;-7.92;65.38;95938.56;5073688;28;981;-49
2022/01/26 04:01:28;;;;;;;;;;;;;;;-7.98;66.13;95942.16;5073635;28;1093;-49
2022/01/26 04:03:54;;;;;;;;;;;;;;;-7.97;66.01;95936.06;5073973;28;965;-48
2022/01/26 04:06:20;;;;;;;;;;;;;;;-7.97;65.92;95935.22;5074073;28;1066;-49
2022/01/26 04:08:47;;;;;;;;;;;;;;;-8.07;66.28;95945.78;5073490;28;1109;-48
2022/01/26 04:13:55;;;;;;;;;;;;;;;-7.90;65.68;95948.03;5073660;28;1216;-49
2022/01/26 04:16:22;;;;;;;;;;;;;;;-7.91;65.78;95955.84;5073587;28;1065;-48
2022/01/26 04:18:49;;;;;;;;;;;;;;;-7.92;66.15;95951.56;5073502;28;1185;-49
2022/01/26 04:24:02;;;;;;;;;;;;;;;-7.93;66.22;95949.84;5073369;28;1037;-49
2022/01/26 04:26:38;;;;;;;;;;;;;;;-8.01;66.98;95952.56;5072871;28;1047;-49
2022/01/26 04:29:09;;;;;;;;;;;;;;;-8.14;67.73;95944.16;5073367;28;1044;-49
2022/01/26 04:31:36;;;;;;;;;;;;;;;-8.01;67.27;95949.13;5073683;28;1984;-49
2022/01/26 04:34:02;;;;;;;;;;;;;;;-8.10;67.57;95953.63;5073218;28;1073;-49
2022/01/26 04:36:34;;;;;;;;;;;;;;;-8.11;68.11;95951.06;5073186;28;1213;-49
2022/01/26 04:39:06;;;;;;;;;;;;;;;-8.14;67.89;95946.75;5073394;28;1028;-49
2022/01/26 04:44:05;;;;;;;;;;;;;;;-8.18;68.53;95954.66;5073454;28;1068;-48
2022/01/26 04:46:32;;;;;;;;;;;;;;;-8.24;68.06;95953.88;5073275;28;1113;-49
2022/01/26 04:48:58;;;;;;;;;;;;;;;-8.29;68.51;95947.94;5073188;28;974;-49
2022/01/26 04:51:24;;;;;;;;;;;;;;;-8.29;68.11;95947.94;5073019;28;1996;-49
2022/01/26 04:53:50;;;;;;;;;;;;;;;-8.24;67.96;95940.06;5072994;28;1048;-49
2022/01/26 04:56:16;;;;;;;;;;;;;;;-8.13;68.07;95943.28;5073204;28;1037;-49
2022/01/26 04:58:42;;;;;;;;;;;;;;;-8.11;68.47;95944.13;5072014;28;950;-49
2022/01/26 05:01:08;;;;;;;;;;;;;;;-8.06;68.56;95949.25;5072888;28;1101;-49
2022/01/26 05:03:34;;;;;;;;;;;;;;;-7.95;68.02;95954.19;5073195;28;969;-49
2022/01/26 05:06:00;;;;;;;;;;;;;;;-7.86;68.47;95947.06;5072862;28;1049;-49
2022/01/26 05:08:26;;;;;;;;;;;;;;;-7.74;68.75;95951.19;5072764;28;1899;-49
2022/01/26 05:10:53;;;;;;;;;;;;;;;-7.81;67.94;95949.59;5073107;28;1906;-49
2022/01/26 05:13:19;;;;;;;;;;;;;;;-7.82;67.64;95949.63;5073150;28;1020;-49
2022/01/26 05:15:45;;;;;;;;;;;;;;;-7.78;68.02;95946.91;5071686;28;1088;-49
2022/01/26 05:18:11;;;;;;;;;;;;;;;-7.73;68.74;95949.44;5073062;28;1144;-49
2022/01/26 05:20:37;;;;;;;;;;;;;;;-7.74;67.93;95956.38;5073254;28;1047;-49
2022/01/26 05:23:03;;;;;;;;;;;;;;;-7.80;68.42;95956.50;5072743;28;1033;-48
2022/01/26 05:25:29;;;;;;;;;;;;;;;-7.90;68.54;95952.38;5072722;28;1905;-49
2022/01/26 05:27:55;;;;;;;;;;;;;;;-7.88;68.07;95946.25;5072717;28;1101;-49
2022/01/26 05:30:22;;;;;;;;;;;;;;;-7.77;67.75;95953.00;5072696;28;1913;-49
2022/01/26 05:32:48;;;;;;;;;;;;;;;-7.78;67.23;95949.53;5073104;28;1041;-49
2022/01/26 05:35:14;;;;;;;;;;;;;;;-7.86;67.93;95948.81;5071342;28;1225;-49
2022/01/26 05:37:40;;;;;;;;;;;;;;;-7.78;68.53;95948.66;5074041;28;1026;-49
2022/01/26 05:40:06;;;;;;;;;;;;;;;-7.82;67.68;95947.88;5076469;28;1139;-49
2022/01/26 05:42:35;;;;;;;;;;;;;;;-7.93;67.44;95952.44;5076919;28;965;-49
2022/01/26 05:45:04;;;;;;;;;;;;;;;-7.91;67.85;95948.06;5076544;28;1079;-49
2022/01/26 05:47:32;;;;;;;;;;;;;;;-7.81;67.39;95943.56;5076422;28;1053;-49
2022/01/26 05:49:59;;;;;;;;;;;;;;;-7.71;67.26;95952.84;5075052;28;1983;-48
2022/01/26 05:52:25;;;;;;;;;;;;;;;-7.70;66.68;95950.25;5076195;28;989;-49
2022/01/26 05:54:51;;;;;;;;;;;;;;;-7.63;65.96;95950.94;5076354;28;1096;-49
2022/01/26 05:57:17;;;;;;;;;;;;;;;-7.56;65.81;95954.28;5076139;28;1051;-49
2022/01/26 05:59:43;;;;;;;;;;;;;;;-7.63;65.50;95955.28;5075267;28;1047;-49
2022/01/26 06:02:09;;;;;;;;;;;;;;;-7.71;65.88;95953.72;5075936;28;1073;-49
2022/01/26 06:04:35;;;;;;;;;;;;;;;-7.71;66.08;95958.06;5076180;28;1125;-48
2022/01/26 06:07:02;;;;;;;;;;;;;;;-7.73;65.21;95957.22;5076083;28;1001;-48
2022/01/26 06:09:28;;;;;;;;;;;;;;;-7.71;66.55;95955.47;5074696;28;1913;-49
2022/01/26 06:11:54;;;;;;;;;;;;;;;-7.72;65.88;95954.59;5075947;28;1053;-49
2022/01/26 06:14:20;;;;;;;;;;;;;;;-7.68;66.08;95958.84;5075980;28;1029;-48
2022/01/26 06:16:46;;;;;;;;;;;;;;;-7.58;65.68;95962.09;5075861;28;1167;-47
2022/01/26 06:19:12;;;;;;;;;;;;;;;-7.63;65.42;95961.34;5075820;28;1026;-47
2022/01/26 06:21:38;;;;;;;;;;;;;;;-7.55;65.33;95959.47;5075816;28;1052;-49
2022/01/26 06:24:05;;;;;;;;;;;;;;;-7.46;65.51;95956.63;5075816;28;1050;-48
2022/01/26 06:26:31;;;;;;;;;;;;;;;-7.50;65.71;95957.59;5075873;28;942;-48
2022/01/26 06:28:57;;;;;;;;;;;;;;;-7.43;65.57;95955.72;5075523;28;1146;-48
2022/01/26 06:31:26;;;;;;;;;;;;;;;-7.39;65.97;95959.13;5075444;28;1901;-48
2022/01/26 06:33:53;;;;;;;;;;;;;;;-7.37;65.34;95963.38;5075717;28;969;-48
2022/01/26 06:36:19;;;;;;;;;;;;;;;-7.35;65.90;95960.75;5075110;28;1204;-49
2022/01/26 06:38:46;;;;;;;;;;;;;;;-7.34;64.89;95960.72;5074650;28;1096;-49
2022/01/26 06:41:13;;;;;;;;;;;;;;;-7.29;64.30;95964.06;5075330;28;1077;-48
2022/01/26 06:43:50;;;;;;;;;;;;;;;-7.33;63.94;95948.59;5075645;28;1084;-49
2022/01/26 06:46:25;;;;;;;;;;;;;;;-7.22;63.08;95953.56;5075536;28;1032;-48
2022/01/26 06:51:23;;;;;;;;;;;;;;;-6.97;62.94;95962.47;5074933;28;1977;-48
2022/01/26 06:53:49;;;;;;;;;;;;;;;-6.91;62.23;95970.13;5075639;28;944;-48
2022/01/26 06:56:15;;;;;;;;;;;;;;;-6.98;62.44;95958.19;5074983;28;1050;-48
2022/01/26 06:58:41;;;;;;;;;;;;;;;-7.04;60.99;95963.50;5075003;28;1116;-48
2022/01/26 07:01:08;;;;;;;;;;;;;;;-7.03;59.94;95961.78;5074819;28;1076;-48
2022/01/26 07:03:34;;;;;;;;;;;;;;;-7.01;61.97;95973.84;5075058;28;1040;-49
2022/01/26 07:06:00;;;;;;;;;;;;;;;-7.02;61.65;95966.06;5075201;28;1048;-48
2022/01/26 07:08:26;;;;;;;;;;;;;;;-6.94;61.72;95961.59;5074807;28;1107;-48
2022/01/26 07:10:53;;;;;;;;;;;;;;;-6.87;61.33;95971.78;5075515;28;1902;-48
2022/01/26 07:13:19;;;;;;;;;;;;;;;-6.80;61.57;95971.66;5074749;28;1084;-48
2022/01/26 07:21:26;;;;;;;;;;;;;;;-6.84;61.89;95968.25;5074560;28;1057;-48
2022/01/26 07:23:53;;;;;;;;;;;;;;;-6.81;61.67;95969.91;5074806;28;1008;-48
2022/01/26 07:26:19;;;;;;;;;;;;;;;-6.69;61.44;95969.66;5074837;28;1037;-48
2022/01/26 07:28:45;;;;;;;;;;;;;;;-6.73;61.12;95965.41;5074514;28;934;-48
2022/01/26 07:31:12;;;;;;;;;;;;;;;-6.63;60.54;95966.88;5074424;28;1972;-48
2022/01/26 07:33:39;;;;;;;;;;;;;;;-6.64;60.83;95967.75;5074417;28;1096;-48
2022/01/26 07:36:05;;;;;;;;;;;;;;;-6.64;60.56;95965.16;5074624;28;1150;-48
2022/01/26 07:38:32;;;;;;;;;;;;;;;-6.48;61.30;95974.31;5073367;28;954;-48
2022/01/26 07:40:58;;;;;;;;;;;;;;;-6.34;61.55;95967.91;5074297;28;1096;-48
2022/01/26 07:43:24;;;;;;;;;;;;;;;-6.31;61.53;95971.28;5074335;28;989;-48
2022/01/26 07:45:50;;;;;;;;;;;;;;;-6.27;60.41;95961.66;5074510;28;1001;-48
2022/01/26 07:48:17;;;;;;;;;;;;;;;-6.21;61.11;95971.88;5074278;28;1041;-48
2022/01/26 07:50:43;;;;;;;;;;;;;;;-6.20;61.80;95971.00;5072894;28;1910;-48
2022/01/26 07:53:14;;;;;;;;;;;;;;;-6.14;62.04;95970.84;5073839;28;2010;-49
2022/01/26 07:55:41;;;;;;;;;;;;;;;-6.12;62.00;95976.00;5074353;28;981;-48
2022/01/26 07:58:09;;;;;;;;;;;;;;;-6.16;61.45;95972.63;5073866;28;954;-49
2022/01/26 08:00:35;;;;;;;;;;;;;;;-6.15;62.01;95970.88;5073647;28;1961;-49
2022/01/26 08:03:01;;;;;;;;;;;;;;;-6.20;61.98;95976.22;5073938;28;1056;-48
2022/01/26 08:05:28;;;;;;;;;;;;;;;-6.18;61.33;95978.78;5074011;28;977;-49
2022/01/26 08:07:54;;;;;;;;;;;;;;;-5.99;60.88;95980.00;5073684;28;1057;-49
2022/01/26 08:10:20;;;;;;;;;;;;;;;-5.93;60.32;95978.94;5073570;28;1910;-49
2022/01/26 08:12:48;;;;;;;;;;;;;;;-5.97;61.01;95974.75;5073814;28;1036;-48
2022/01/26 08:15:15;;;;;;;;;;;;;;;-5.89;61.52;95973.59;5073948;28;1033;-49
2022/01/26 08:17:42;;;;;;;;;;;;;;;-5.79;61.49;95978.56;5073817;28;977;-49
2022/01/26 08:20:10;;;;;;;;;;;;;;;-5.95;61.51;95981.59;5073734;28;1064;-48
2022/01/26 08:22:36;;;;;;;;;;;;;;;-5.95;61.79;95981.59;5073705;28;1060;-48
2022/01/26 08:25:02;;;;;;;;;;;;;;;-5.82;61.50;95987.31;5073811;28;1145;-49
2022/01/26 08:27:36;;;;;;;;;;;;;;;-5.84;61.69;95990.84;5073425;28;977;-49
2022/01/26 08:30:08;;;;;;;;;;;;;;;-5.92;60.89;95993.66;5073452;28;1902;-49
2022/01/26 08:32:34;;;;;;;;;;;;;;;-5.85;61.70;95989.16;5073297;28;1061;-48
2022/01/26 08:35:00;;;;;;;;;;;;;;;-5.79;62.18;95987.22;5073829;28;1024;-49
2022/01/26 08:37:26;;;;;;;;;;;;;;;-5.78;59.96;95977.69;5073236;28;1225;-48
2022/01/26 08:39:52;;;;;;;;;;;;;;;-5.84;60.64;95977.81;5073541;28;962;-48
2022/01/26 08:42:18;;;;;;;;;;;;;;;-5.74;61.02;95979.31;5072028;28;1086;-49
2022/01/26 08:44:45;;;;;;;;;;;;;;;-5.68;60.63;95977.34;5073243;28;1087;-49
2022/01/26 08:47:11;;;;;;;;;;;;;;;-5.64;62.04;95977.28;5073363;28;1087;-48
2022/01/26 08:49:36;;;;;;;;;;;;;;;-5.59;60.42;95978.03;5072943;28;1914;-48
2022/01/26 08:52:03;;;;;;;;;;;;;;;-5.58;61.02;95974.50;5073253;28;1064;-48
2022/01/26 08:54:29;;;;;;;;;;;;;;;-5.57;61.18;95987.50;5073242;28;1041;-48
2022/01/26 08:56:55;;;;;;;;;;;;;;;-5.63;61.22;95992.88;5073493;28;1048;-49
2022/01/26 08:59:23;;;;;;;;;;;;;;;-5.66;60.98;95979.94;5072875;28;966;-49
2022/01/26 09:01:49;;;;;;;;;;;;;;;-5.70;60.73;95989.56;5073021;28;1093;-49
2022/01/26 09:04:15;;;;;;;;;;;;;;;-5.75;59.33;95988.00;5072832;28;965;-48
2022/01/26 09:07:00;;;;;;;;;;;;;;;-5.68;58.75;95995.59;5073119;28;997;-48
2022/01/26 09:09:30;;;;;;;;;;;;;;;-5.61;59.33;95988.47;5072782;28;976;-49
2022/01/26 09:11:58;;;;;;;;;;;;;;;-5.57;57.69;95990.09;5073113;28;1985;-49
2022/01/26 09:14:27;;;;;;;;;;;;;;;-5.43;57.84;95996.66;5077004;28;1021;-49
2022/01/26 09:16:54;;;;;;;;;;;;;;;-5.38;57.07;95995.63;5077224;28;965;-49
2022/01/26 09:19:30;;;;;;;;;;;;;;;-5.33;57.40;95996.38;5077176;28;1132;-49
2022/01/26 09:21:58;;;;;;;;;;;;;;;-5.30;57.13;95993.66;5077362;28;981;-49
2022/01/26 09:24:26;;;;;;;;;;;;;;;-5.21;56.20;95991.69;5077061;28;1025;-48
2022/01/26 09:26:52;;;;;;;;;;;;;;;-5.10;55.60;95998.28;5077179;28;981;-48
2022/01/26 09:29:18;;;;;;;;;;;;;;;-5.12;55.28;95994.88;5076336;28;1094;-48
2022/01/26 09:31:47;;;;;;;;;;;;;;;-5.07;55.90;95983.44;5075641;28;1906;-49
2022/01/26 09:34:17;;;;;;;;;;;;;;;-5.12;55.97;95988.81;5076360;28;1042;-49
2022/01/26 09:36:43;;;;;;;;;;;;;;;-5.16;54.97;95985.44;5076651;28;1150;-49
2022/01/26 09:39:10;;;;;;;;;;;;;;;-5.06;56.11;95986.03;5076614;28;1005;-49
2022/01/26 09:41:38;;;;;;;;;;;;;;;-4.97;55.98;95990.09;5076670;28;1112;-49
2022/01/26 09:44:04;;;;;;;;;;;;;;;-4.86;54.82;95988.00;5076496;28;1105;-49
2022/01/26 09:46:31;;;;;;;;;;;;;;;-5.01;55.42;95971.06;5076702;28;993;-49
2022/01/26 09:48:57;;;;;;;;;;;;;;;-5.01;56.67;95981.50;5076199;28;1029;-49
2022/01/26 09:51:23;;;;;;;;;;;;;;;-4.81;57.59;95977.44;5076326;28;1910;-49
2022/01/26 09:54:18;;;;;;;;;;;;;;;-4.77;56.87;95986.88;5076370;28;1883;-49
2022/01/26 09:56:46;;;;;;;;;;;;;;;-4.63;57.24;95981.22;5059156;28;1456;-49
2022/01/26 09:59:14;;;;;;;;;;;;;;;-4.47;57.58;95979.81;5076091;28;1009;-50
2022/01/26 10:01:44;;;;;;;;;;;;;;;-4.34;57.06;95972.44;5076246;28;1223;-50
2022/01/26 10:04:24;;;;;;;;;;;;;;;-4.42;57.55;95972.69;5075870;28;1030;-50
2022/01/26 10:18:00;;;;;;;;;;;;;;;-4.37;57.72;95975.16;5076192;28;1056;-50
2022/01/26 10:20:26;;;;;;;;;;;;;;;-4.45;57.62;95966.72;5075768;28;1052;-50
2022/01/26 10:22:52;;;;;;;;;;;;;;;-4.38;57.49;95973.44;5076002;28;966;-50
2022/01/26 10:25:19;;;;;;;;;;;;;;;-4.33;56.64;95966.31;5075895;28;1072;-50
2022/01/26 10:27:48;;;;;;;;;;;;;;;-4.25;56.61;95958.22;5075938;28;1029;-50
2022/01/26 10:30:15;;;;;;;;;;;;;;;-4.15;54.69;95959.63;5075496;28;1921;-49
2022/01/26 10:32:45;;;;;;;;;;;;;;;-4.19;54.92;95958.88;5075950;28;973;-49
2022/01/26 10:35:11;;;;;;;;;;;;;;;-4.26;55.60;95959.13;5075691;28;1216;-50
2022/01/26 10:37:40;;;;;;;;;;;;;;;-4.26;55.03;95953.91;5075898;28;985;-50
2022/01/26 10:40:12;;;;;;;;;;;;;;;-4.18;55.49;95967.56;5075683;28;1056;-49
2022/01/26 10:42:38;;;;;;;;;;;;;;;-4.18;54.75;95957.09;5075809;28;1088;-49
2022/01/26 10:45:15;;;;;;;;;;;;;;;-4.32;54.60;95949.75;5075501;28;1048;-49
2022/01/26 10:47:46;;;;;;;;;;;;;;;-4.35;54.69;95945.47;5075683;28;1040;-49
2022/01/26 10:53:06;;;;;;;;;;;;;;;-4.22;55.14;95945.06;5075730;28;1016;-48
2022/01/26 10:55:33;;;;;;;;;;;;;;;-4.06;54.51;95948.88;5075316;28;1059;-48
2022/01/26 10:58:00;;;;;;;;;;;;;;;-4.17;54.03;95940.53;5075048;28;1037;-48
2022/01/26 11:00:26;;;;;;;;;;;;;;;-4.12;54.31;95938.59;5075018;28;1243;-49
2022/01/26 11:02:57;;;;;;;;;;;;;;;-4.21;54.95;95939.78;5075280;28;1143;-48
2022/01/26 11:05:24;;;;;;;;;;;;;;;-4.20;55.35;95940.63;5074877;28;1085;-48
2022/01/26 11:07:50;;;;;;;;;;;;;;;-4.25;54.41;95932.97;5075115;28;1017;-49
2022/01/26 11:10:16;;;;;;;;;;;;;;;-4.18;53.58;95934.44;5074869;28;2027;-48
2022/01/26 11:12:42;;;;;;;;;;;;;;;-4.17;55.43;95938.78;5075345;28;1079;-49
2022/01/26 11:15:10;;;;;;;;;;;;;;;-4.23;55.39;95932.91;5074938;28;1784;-49
2022/01/26 11:17:37;;;;;;;;;;;;;;;-4.15;56.61;95936.97;5074883;28;939;-49
2022/01/26 11:20:20;;;;;;;;;;;;;;;-4.16;56.15;95930.00;5074853;28;1006;-49
2022/01/26 11:22:48;;;;;;;;;;;;;;;-4.14;55.86;95935.19;5074658;28;1015;-49
2022/01/26 11:25:14;;;;;;;;;;;;;;;-4.15;56.63;95930.91;5074685;28;1012;-48
2022/01/26 11:27:40;;;;;;;;;;;;;;;-4.06;56.60;95933.19;5074731;28;1009;-48
2022/01/26 11:30:17;;;;;;;;;;;;;;;-4.08;55.44;95929.75;5074578;28;1902;-49
2022/01/26 11:33:10;;;;;;;;;;;;;;;-3.97;57.19;95918.94;5074723;28;1004;-49
2022/01/26 11:35:36;;;;;;;;;;;;;;;-4.03;56.67;95933.06;5070844;28;1158;-49
2022/01/26 11:38:10;;;;;;;;;;;;;;;-4.07;57.20;95921.03;5074450;28;1140;-48
2022/01/26 11:46:26;;;;;;;;;;;;;;;-3.92;57.55;95917.03;5074021;28;1026;-50
2022/01/26 11:49:00;;;;;;;;;;;;;;;-3.77;56.10;95911.22;5074253;28;965;-51
2022/01/26 11:51:37;;;;;;;;;;;;;;;-3.74;56.14;95911.13;5073848;28;1985;-51
2022/01/26 11:54:13;;;;;;;;;;;;;;;-3.62;56.35;95920.28;5074389;28;966;-51
2022/01/26 11:56:39;;;;;;;;;;;;;;;-3.67;56.21;95916.97;5073893;28;1030;-51
2022/01/26 11:59:15;;;;;;;;;;;;;;;-3.76;56.79;95906.84;5073980;28;1125;-52
2022/01/26 12:01:43;;;;;;;;;;;;;;;-3.58;56.52;95911.41;5073778;28;1128;-51
2022/01/26 12:04:14;;;;;;;;;;;;;;;-3.50;55.20;95905.06;5073727;28;1085;-52
2022/01/26 12:06:47;;;;;;;;;;;;;;;-3.57;55.65;95902.63;5073709;28;1021;-51
2022/01/26 12:09:13;;;;;;;;;;;;;;;-3.70;55.47;95898.78;5074100;28;1021;-52
2022/01/26 12:11:39;;;;;;;;;;;;;;;-3.65;55.67;95912.53;5073722;28;1914;-51
2022/01/26 12:14:06;;;;;;;;;;;;;;;-3.61;57.00;95895.81;5073903;28;977;-50
2022/01/26 12:16:33;;;;;;;;;;;;;;;-3.64;57.57;95908.16;5072333;28;1050;-50
2022/01/26 12:19:23;;;;;;;;;;;;;;;-3.50;56.80;95913.75;5073626;28;1040;-50
2022/01/26 12:38:17;;;;;;;;;;;;;;;-3.43;56.55;95889.06;5073159;28;1043;-50
2022/01/26 12:43:44;;;;;;;;;;;;;;;-3.15;57.04;95891.47;5073374;28;1000;-51
2022/01/26 12:46:12;;;;;;;;;;;;;;;-3.16;58.33;95889.75;5072814;28;1105;-50
2022/01/26 12:48:40;;;;;;;;;;;;;;;-3.33;57.49;95882.56;5072819;28;977;-49
2022/01/26 12:51:07;;;;;;;;;;;;;;;-3.31;58.08;95892.97;5073393;28;1993;-50
2022/01/26 12:53:35;;;;;;;;;;;;;;;-3.36;58.13;95892.28;5073206;28;1025;-50
2022/01/26 12:56:03;;;;;;;;;;;;;;;-3.21;57.87;95885.63;5073320;28;968;-50
2022/01/26 12:58:30;;;;;;;;;;;;;;;-3.21;57.49;95881.22;5072729;28;1103;-50
2022/01/26 13:01:05;;;;;;;;;;;;;;;-3.18;57.08;95878.50;5073033;28;1251;-50
2022/01/26 13:03:38;;;;;;;;;;;;;;;-3.08;57.59;95888.63;5073206;28;926;-50
2022/01/26 13:06:18;;;;;;;;;;;;;;;-3.12;57.08;95887.03;5073123;28;1045;-50
2022/01/26 13:08:46;;;;;;;;;;;;;;;-3.15;56.47;95880.13;5073298;28;977;-50
2022/01/26 13:11:12;;;;;;;;;;;;;;;-3.08;57.07;95892.06;5073198;28;1913;-50
2022/01/26 13:13:38;;;;;;;;;;;;;;;-3.10;57.57;95878.19;5072818;28;981;-50
2022/01/26 13:16:22;;;;;;;;;;;;;;;-3.19;58.34;95881.19;5073327;28;1053;-50
2022/01/26 13:21:57;;;;;;;;;;;;;;;-3.40;57.24;95881.09;5072984;28;1128;-50
2022/01/26 13:27:18;;;;;;;;;;;;;;;-3.20;58.24;95877.72;5072855;28;1148;-49
2022/01/26 13:30:11;;;;;;;;;;;;;;;-3.20;57.59;95880.34;5072889;28;1046;-50
2022/01/26 13:37:48;;;;;;;;;;;;;;;-3.19;57.70;95891.63;5072965;28;1154;-50
2022/01/26 13:49:07;;;;;;;;;;;;;;;-3.33;58.42;95882.56;5050334;28;958;-51
2022/01/26 13:59:16;;;;;;;;;;;;;;;-3.31;58.16;95877.28;5074274;28;986;-50
2022/01/26 14:01:45;;;;;;;;;;;;;;;-3.36;58.26;95877.47;5076027;28;1255;-51
2022/01/26 14:04:13;;;;;;;;;;;;;;;-3.26;58.64;95883.19;5076227;28;1013;-50
2022/01/26 14:06:39;;;;;;;;;;;;;;;-3.35;58.62;95886.16;5075335;28;1012;-50
2022/01/26 14:09:05;;;;;;;;;;;;;;;-3.40;58.12;95881.09;5076294;28;977;-50
2022/01/26 14:11:31;;;;;;;;;;;;;;;-3.36;58.02;95885.31;5076260;28;2005;-51
2022/01/26 14:13:58;;;;;;;;;;;;;;;-3.34;58.73;95880.88;5076217;28;997;-51
2022/01/26 14:16:28;;;;;;;;;;;;;;;-3.33;59.40;95885.19;5075799;28;1090;-50
2022/01/26 14:21:45;;;;;;;;;;;;;;;-3.26;59.70;95892.78;5076276;28;1037;-50
2022/01/26 14:26:44;;;;;;;;;;;;;;;-3.45;58.88;95893.50;5075826;28;1053;-51
2022/01/26 14:32:27;;;;;;;;;;;;;;;-3.44;59.19;95891.75;5052185;28;1981;-51
2022/01/26 14:51:28;;;;;;;;;;;;;;;-3.30;60.29;95909.50;5055512;28;1910;-50
2022/01/26 14:54:43;;;;;;;;;;;;;;;-3.31;60.17;95903.44;5054967;28;1925;-51
2022/01/26 15:22:38;;;;;;;;;;;;;;;-3.35;61.13;95889.63;5054577;28;1018;-50
2022/01/26 15:40:06;;;;;;;;;;;;;;;-3.45;62.44;95901.34;5074272;28;1045;-51
2022/01/26 15:53:17;;;;;;;;;;;;;;;-3.50;63.20;95910.28;5074593;28;1048;-50
2022/01/26 16:38:59;;;;;;;;;;;;;;;-3.21;64.23;95917.84;5073488;28;1890;-51
2022/01/26 17:46:50;;;;;;;;;;;;;;;-3.34;65.53;95956.72;5076538;28;990;-51
2022/01/26 18:17:31;;;;;;;;;;;;;;;-3.28;66.88;95960.00;5076184;28;1051;-51
2022/01/26 18:49:33;;;;;;;;;;;;;;;-3.29;67.08;95968.75;5075298;28;1045;-51
2022/01/26 18:51:59;;;;;;;;;;;;;;;-3.23;67.30;95974.59;5075393;28;1883;-50
2022/01/26 18:54:27;;;;;;;;;;;;;;;-3.32;68.00;95982.78;5075354;28;1004;-51
2022/01/26 18:56:54;;;;;;;;;;;;;;;-3.27;67.16;95980.88;5075645;28;1033;-51
2022/01/26 18:59:22;;;;;;;;;;;;;;;-3.10;66.99;95971.53;5074737;28;1140;-51
2022/01/26 19:01:49;;;;;;;;;;;;;;;-3.01;67.04;95972.03;5075081;28;1097;-51
2022/01/26 19:04:17;;;;;;;;;;;;;;;-3.14;66.99;95984.72;5075274;28;1048;-51
2022/01/26 19:06:49;;;;;;;;;;;;;;;-3.20;67.12;95973.66;5075156;28;1016;-50
2022/01/26 19:09:20;;;;;;;;;;;;;;;-3.10;66.64;95976.78;5075191;28;1009;-50
2022/01/26 19:11:47;;;;;;;;;;;;;;;-3.23;67.22;95979.84;5074999;28;1979;-51
2022/01/26 19:14:13;;;;;;;;;;;;;;;-3.13;66.75;95985.56;5074700;28;1055;-51
2022/01/26 19:16:46;;;;;;;;;;;;;;;-3.12;66.35;95989.91;5075069;28;981;-51
2022/01/26 19:42:25;;;;;;;;;;;;;;;-3.03;67.39;95981.72;5054755;28;1010;-50
2022/01/26 19:51:39;;;;;;;;;;;;;;;-3.06;67.04;95973.97;5054174;28;1910;-51
2022/01/26 19:54:05;;;;;;;;;;;;;;;-3.02;67.28;95975.56;5054209;28;1208;-51
2022/01/26 19:56:31;;;;;;;;;;;;;;;-3.10;67.68;95977.63;5053928;28;1112;-51
2022/01/26 19:58:57;;;;;;;;;;;;;;;-3.11;68.39;95985.53;5053556;28;1085;-51
2022/01/26 20:01:23;;;;;;;;;;;;;;;-3.08;68.53;95986.25;5053905;28;1197;-51
2022/01/26 20:03:50;;;;;;;;;;;;;;;-2.89;67.50;95980.34;5054095;28;974;-51
2022/01/26 20:06:16;;;;;;;;;;;;;;;-2.89;67.17;95986.41;5054226;28;1056;-51
2022/01/26 20:09:04;;;;;;;;;;;;;;;-2.95;67.44;95981.41;5053862;28;1053;-50
2022/01/26 20:11:39;;;;;;;;;;;;;;;-2.87;66.79;95981.13;5053700;28;1978;-51
2022/01/26 20:14:06;;;;;;;;;;;;;;;-2.87;66.71;95975.88;5053853;28;1036;-50
2022/01/26 20:16:33;;;;;;;;;;;;;;;-3.00;67.23;95967.66;5054009;28;1040;-51
2022/01/26 20:18:59;;;;;;;;;;;;;;;-3.11;67.34;95985.53;5053929;28;1060;-51
2022/01/26 20:21:25;;;;;;;;;;;;;;;-3.07;67.84;95972.28;5053650;28;1042;-51
2022/01/26 20:23:51;;;;;;;;;;;;;;;-2.96;67.55;95974.47;5053903;28;1078;-51
2022/01/26 20:26:18;;;;;;;;;;;;;;;-3.01;67.79;95979.88;5053419;28;1077;-50